Time;durP1;ratioP1;P1;durP2;ratioP2;P2;SDS_P1;SDS_P2;PMS_P1;PMS_P2;Temp;Humidity;BMP_temperature;BMP_pressure;BME280_temperature;BME280_humidity;BME280_pressure;Samples;Min_cycle;Max_cycle;Signal;HPM_P1;HPM_P2
2022/03/13 12:04:31;;;;;;;14.20;12.90;;;23.50;26.50;;;;;;6110675;22;1966772;-66
2022/03/13 12:07:01;;;;;;;14.75;11.52;;;23.60;27.10;;;;;;6186151;22;20204;-70
2022/03/13 12:09:42;;;;;;;11.95;10.85;;;23.60;26.90;;;;;;6196202;23;20194;-68
2022/03/13 12:12:12;;;;;;;11.75;10.10;;;23.70;27.00;;;;;;6198969;23;20281;-74
2022/03/13 12:17:16;;;;;;;10.48;8.82;;;23.80;27.40;;;;;;6170208;22;20204;-73
2022/03/13 12:19:44;;;;;;;10.50;9.32;;;23.90;27.70;;;;;;6219915;23;20197;-74
2022/03/13 12:22:14;;;;;;;10.88;9.77;;;23.90;27.70;;;;;;6222599;23;20182;-74
2022/03/13 12:24:48;;;;;;;12.13;10.93;;;23.90;27.70;;;;;;6222107;23;20531;-73
2022/03/13 12:27:16;;;;;;;12.43;11.23;;;23.90;27.60;;;;;;6242431;23;20576;-74
2022/03/13 12:29:44;;;;;;;11.48;10.40;;;23.90;27.50;;;;;;6193104;23;20989;-73
2022/03/13 12:32:12;;;;;;;12.15;10.88;;;23.90;27.40;;;;;;6193699;23;20175;-76
2022/03/13 12:34:41;;;;;;;11.60;10.40;;;23.90;27.30;;;;;;6198646;22;20170;-67
2022/03/13 12:37:15;;;;;;;13.13;11.82;;;23.90;27.60;;;;;;6280547;22;20374;-67
2022/03/13 12:39:51;;;;;;;12.52;11.30;;;24.00;27.40;;;;;;6251064;22;20161;-67
2022/03/13 12:42:24;;;;;;;12.25;11.05;;;23.90;27.30;;;;;;6254667;22;20173;-66
2022/03/13 12:45:07;;;;;;;11.82;10.63;;;24.00;27.40;;;;;;6244746;23;20198;-67
2022/03/13 12:47:39;;;;;;;10.00;9.00;;;24.00;27.40;;;;;;6222699;23;20167;-67
2022/03/13 12:50:10;;;;;;;9.85;8.85;;;24.00;27.50;;;;;;6230989;23;20171;-68
2022/03/13 12:52:47;;;;;;;9.82;8.77;;;24.00;28.30;;;;;;6229224;23;20171;-68
2022/03/13 12:55:15;;;;;;;10.50;8.65;;;24.00;28.00;;;;;;6222843;23;20190;-68
2022/03/13 12:57:42;;;;;;;9.60;8.15;;;24.10;28.20;;;;;;6248135;23;20177;-68
2022/03/13 13:00:10;;;;;;;10.02;7.88;;;24.10;28.10;;;;;;6250839;23;20190;-66
2022/03/13 13:02:37;;;;;;;8.45;7.60;;;24.10;28.40;;;;;;6254804;22;20163;-67
2022/03/13 13:05:06;;;;;;;11.00;8.07;;;24.10;28.10;;;;;;6250160;22;20637;-68
2022/03/13 13:07:34;;;;;;;8.52;7.60;;;24.10;28.30;;;;;;6223353;23;20201;-67
2022/03/13 13:10:05;;;;;;;8.48;7.57;;;24.10;28.50;;;;;;6248669;23;20171;-67
2022/03/13 13:12:32;;;;;;;11.15;9.50;;;24.10;28.80;;;;;;6222554;23;20177;-67
2022/03/13 13:15:01;;;;;;;10.70;9.65;;;24.10;28.10;;;;;;6247735;23;20187;-66
2022/03/13 13:17:29;;;;;;;13.27;11.90;;;24.10;27.70;;;;;;6247015;23;20198;-66
2022/03/13 13:19:57;;;;;;;12.90;11.60;;;24.10;27.10;;;;;;6221916;23;20175;-67
2022/03/13 13:22:29;;;;;;;13.18;11.85;;;24.10;26.90;;;;;;6248868;23;20163;-67
2022/03/13 13:24:57;;;;;;;13.45;12.15;;;24.10;26.80;;;;;;6221609;23;20202;-67
2022/03/13 13:27:36;;;;;;;13.07;11.82;;;24.00;27.00;;;;;;6248468;23;20187;-66
2022/03/13 13:30:19;;;;;;;12.52;11.32;;;24.00;26.40;;;;;;6221642;23;20209;-67
2022/03/13 13:32:51;;;;;;;13.60;12.30;;;24.00;26.10;;;;;;6223558;23;20187;-67
2022/03/13 13:35:29;;;;;;;13.23;11.93;;;24.00;26.20;;;;;;6249395;23;20195;-67
2022/03/13 13:37:58;;;;;;;12.95;11.70;;;23.90;26.20;;;;;;6251191;23;20157;-67
2022/03/13 13:40:26;;;;;;;13.60;12.07;;;23.90;26.10;;;;;;6225253;23;20182;-66
2022/03/13 13:42:59;;;;;;;13.40;11.85;;;23.90;26.30;;;;;;6250392;23;20241;-65
2022/03/13 13:45:34;;;;;;;11.85;10.65;;;23.90;26.10;;;;;;6249125;23;20198;-66
2022/03/13 13:48:31;;;;;;;10.48;9.48;;;23.90;26.20;;;;;;6224696;23;20189;-67
2022/03/13 13:51:24;;;;;;;12.55;10.15;;;23.90;26.50;;;;;;6160079;23;20169;-67
2022/03/13 13:53:54;;;;;;;13.30;10.88;;;23.80;26.60;;;;;;6220279;23;20182;-68
2022/03/13 13:56:29;;;;;;;11.90;9.90;;;23.80;26.40;;;;;;6224447;23;20711;-68
2022/03/13 13:58:58;;;;;;;11.18;10.07;;;23.80;26.60;;;;;;6251492;23;20162;-67
2022/03/13 14:01:26;;;;;;;11.10;10.00;;;23.70;26.60;;;;;;6227303;23;20270;-68
2022/03/13 14:03:56;;;;;;;11.73;10.57;;;23.70;26.60;;;;;;6249752;23;20519;-68
2022/03/13 14:06:34;;;;;;;11.68;10.52;;;23.70;26.50;;;;;;6225279;23;20197;-68
2022/03/13 14:09:01;;;;;;;11.40;10.25;;;23.70;26.30;;;;;;6224847;23;20169;-68
2022/03/13 14:11:29;;;;;;;11.65;10.45;;;23.60;26.20;;;;;;6251724;23;20171;-68
2022/03/13 14:14:03;;;;;;;12.75;11.45;;;23.60;26.20;;;;;;6253311;23;20258;-68
2022/03/13 14:16:31;;;;;;;12.02;10.80;;;23.60;25.90;;;;;;6239980;23;20605;-68
2022/03/13 14:18:58;;;;;;;11.82;10.63;;;23.60;26.30;;;;;;6252932;23;20159;-67
2022/03/13 14:21:25;;;;;;;10.77;9.68;;;23.60;26.00;;;;;;6251347;23;20201;-68
2022/03/13 14:23:57;;;;;;;12.82;10.38;;;23.60;26.10;;;;;;6236594;23;20210;-68
2022/03/13 14:26:24;;;;;;;11.85;10.65;;;23.60;26.10;;;;;;6227754;23;20500;-68
2022/03/13 14:28:51;;;;;;;12.82;11.52;;;23.60;26.00;;;;;;6230257;23;20569;-68
2022/03/13 14:31:24;;;;;;;11.80;10.40;;;23.60;26.30;;;;;;6236648;23;20182;-65
2022/03/13 14:33:52;;;;;;;12.80;11.13;;;23.50;26.20;;;;;;6255496;23;20475;-65
2022/03/13 14:36:22;;;;;;;13.73;12.43;;;23.50;26.00;;;;;;6255092;22;20243;-68
2022/03/13 14:38:50;;;;;;;13.57;12.27;;;23.50;25.40;;;;;;6253074;23;20152;-68
2022/03/13 14:41:18;;;;;;;14.80;13.32;;;23.50;25.20;;;;;;6225271;23;20170;-67
2022/03/13 14:43:46;;;;;;;14.43;12.95;;;23.50;25.10;;;;;;6251663;23;20186;-67
2022/03/13 14:46:14;;;;;;;15.30;13.52;;;23.40;24.80;;;;;;6254449;22;20513;-54
2022/03/13 14:48:44;;;;;;;15.05;13.48;;;23.40;25.50;;;;;;6250287;22;20196;-54
2022/03/13 14:51:12;;;;;;;15.73;13.73;;;23.40;24.60;;;;;;6277843;22;20199;-54
2022/03/13 14:53:40;;;;;;;14.55;13.05;;;23.40;24.50;;;;;;6229776;23;20194;-54
2022/03/13 14:56:08;;;;;;;14.95;12.35;;;23.40;24.70;;;;;;6245433;23;20205;-53
2022/03/13 14:58:36;;;;;;;14.18;12.77;;;23.30;25.10;;;;;;6219863;23;20167;-54
2022/03/13 15:01:03;;;;;;;14.73;12.45;;;23.30;25.00;;;;;;6219871;23;20167;-54
2022/03/13 15:03:30;;;;;;;13.15;11.70;;;23.30;24.50;;;;;;6220176;23;20645;-54
2022/03/13 15:05:59;;;;;;;13.52;12.13;;;23.20;25.10;;;;;;6245406;23;20240;-54
2022/03/13 15:08:27;;;;;;;13.18;11.80;;;23.20;25.00;;;;;;6247116;23;20241;-54
2022/03/13 15:10:55;;;;;;;12.93;11.55;;;23.20;25.40;;;;;;6220273;23;20254;-54
2022/03/13 15:13:23;;;;;;;12.90;11.50;;;23.20;25.50;;;;;;6247857;22;20202;-54
2022/03/13 15:15:52;;;;;;;13.60;11.13;;;23.10;25.20;;;;;;6219551;23;20167;-55
2022/03/13 15:18:20;;;;;;;15.15;10.77;;;23.10;24.90;;;;;;6246714;23;20185;-56
2022/03/13 15:20:47;;;;;;;12.55;11.23;;;23.10;25.10;;;;;;6247107;23;20166;-54
2022/03/13 15:23:25;;;;;;;11.70;10.50;;;23.10;25.70;;;;;;6245374;23;20200;-55
2022/03/13 15:25:53;;;;;;;13.75;11.15;;;23.10;25.40;;;;;;6247024;23;20166;-55
2022/03/13 15:28:20;;;;;;;11.38;9.95;;;23.00;25.40;;;;;;6246794;23;20241;-55
2022/03/13 15:30:47;;;;;;;15.82;12.02;;;23.00;25.40;;;;;;6220602;23;20250;-55
2022/03/13 15:33:21;;;;;;;13.85;11.68;;;22.90;25.40;;;;;;6219683;23;20199;-54
2022/03/13 15:35:48;;;;;;;13.50;11.68;;;22.90;25.60;;;;;;6219955;23;20170;-55
2022/03/13 15:38:19;;;;;;;13.23;11.90;;;22.80;25.20;;;;;;6246670;23;20166;-55
2022/03/13 15:40:46;;;;;;;13.13;11.23;;;22.80;25.10;;;;;;6219703;23;20486;-55
2022/03/13 15:43:14;;;;;;;13.20;11.88;;;22.80;25.20;;;;;;6219300;23;20194;-54
2022/03/13 15:45:42;;;;;;;13.93;11.95;;;22.80;25.20;;;;;;6244898;23;20559;-56
2022/03/13 15:48:09;;;;;;;12.40;10.93;;;22.70;25.10;;;;;;6246119;23;20155;-54
2022/03/13 15:50:40;;;;;;;14.07;11.20;;;22.70;25.20;;;;;;6244964;23;20174;-55
2022/03/13 15:53:07;;;;;;;12.38;11.18;;;22.70;25.50;;;;;;6219773;23;20625;-55
2022/03/13 15:55:36;;;;;;;12.32;10.57;;;22.70;25.20;;;;;;6220743;23;20167;-54
2022/03/13 15:58:04;;;;;;;11.57;10.23;;;22.70;25.70;;;;;;6246995;23;20162;-54
2022/03/13 16:00:33;;;;;;;12.70;11.40;;;22.70;25.40;;;;;;6247318;23;20246;-55
2022/03/13 16:03:00;;;;;;;13.52;10.93;;;22.60;25.00;;;;;;6220429;23;20270;-56
2022/03/13 16:05:27;;;;;;;15.27;12.05;;;22.60;25.60;;;;;;6221849;23;20560;-55
2022/03/13 16:07:56;;;;;;;12.77;11.52;;;22.60;25.20;;;;;;6218890;23;20171;-55
2022/03/13 16:10:23;;;;;;;12.25;10.95;;;22.50;24.90;;;;;;6248831;23;20616;-55
2022/03/13 16:12:53;;;;;;;13.40;11.15;;;22.50;25.40;;;;;;6247210;22;20182;-57
2022/03/13 16:15:20;;;;;;;12.18;10.98;;;22.50;24.90;;;;;;6247029;23;20242;-56
2022/03/13 16:17:48;;;;;;;10.88;9.77;;;22.50;25.00;;;;;;6246510;23;20163;-55
2022/03/13 16:20:15;;;;;;;9.93;8.90;;;22.50;25.50;;;;;;6244349;23;20175;-54
2022/03/13 16:22:43;;;;;;;9.73;8.73;;;22.50;25.70;;;;;;6219293;23;20222;-52
2022/03/13 16:25:12;;;;;;;9.48;8.50;;;22.50;25.80;;;;;;6246107;23;20644;-52
2022/03/13 16:27:40;;;;;;;8.98;8.10;;;22.50;26.50;;;;;;6246410;23;20167;-54
2022/03/13 16:30:10;;;;;;;8.20;7.40;;;22.50;26.50;;;;;;6246303;23;20166;-56
2022/03/13 16:32:38;;;;;;;9.50;7.78;;;22.50;27.00;;;;;;6219534;23;20198;-54
2022/03/13 16:35:06;;;;;;;7.40;6.68;;;22.50;27.00;;;;;;6244682;23;20197;-57
2022/03/13 16:37:37;;;;;;;6.93;6.32;;;22.50;27.50;;;;;;6246060;23;20565;-55
2022/03/13 16:40:07;;;;;;;7.57;6.78;;;22.50;27.40;;;;;;6246126;23;20147;-53
2022/03/13 16:42:35;;;;;;;7.53;6.40;;;22.50;27.90;;;;;;6246577;22;20186;-54
2022/03/13 16:45:03;;;;;;;7.80;6.97;;;22.50;27.90;;;;;;6244643;23;20189;-55
2022/03/13 16:47:32;;;;;;;8.43;6.82;;;22.50;28.00;;;;;;6219388;23;20198;-55
2022/03/13 16:55:27;;;;;;;5.75;5.22;;;22.50;28.60;;;;;;6228925;22;20210;-71
2022/03/13 17:03:11;;;;;;;6.93;6.22;;;22.50;28.40;;;;;;6219457;22;20229;-65
2022/03/13 17:05:38;;;;;;;6.47;5.75;;;22.60;28.60;;;;;;6202959;23;20731;-65
2022/03/13 17:08:08;;;;;;;6.30;5.70;;;22.50;28.60;;;;;;6217345;23;20635;-65
2022/03/13 17:10:37;;;;;;;6.22;5.35;;;22.50;28.70;;;;;;6218954;23;20172;-66
2022/03/13 17:13:04;;;;;;;6.80;6.10;;;22.50;28.90;;;;;;6216999;23;20570;-65
2022/03/13 17:15:32;;;;;;;6.43;5.53;;;22.40;28.70;;;;;;6204115;23;20293;-65
2022/03/13 17:18:03;;;;;;;6.25;5.65;;;22.40;28.90;;;;;;6193497;23;20684;-65
2022/03/13 17:20:33;;;;;;;5.53;5.00;;;22.40;29.00;;;;;;6193162;22;20191;-62
2022/03/13 17:25:35;;;;;;;6.60;5.28;;;22.30;29.10;;;;;;6248678;22;20247;-62
2022/03/13 17:28:02;;;;;;;6.18;5.60;;;22.30;29.40;;;;;;6251468;23;20174;-62
2022/03/13 17:30:30;;;;;;;6.63;5.45;;;22.20;29.30;;;;;;6223126;23;20171;-63
2022/03/13 17:32:57;;;;;;;7.57;5.70;;;22.20;29.60;;;;;;6211681;23;20195;-63
2022/03/13 17:35:25;;;;;;;5.95;5.35;;;22.20;29.90;;;;;;6237263;22;20225;-73
2022/03/13 17:37:53;;;;;;;7.18;5.47;;;22.10;29.80;;;;;;6250258;23;20186;-70
2022/03/13 17:40:21;;;;;;;5.53;5.03;;;22.10;29.80;;;;;;6223536;23;20171;-71
2022/03/13 17:42:57;;;;;;;6.32;5.82;;;22.10;30.00;;;;;;6245894;22;20218;-70
2022/03/13 17:45:24;;;;;;;6.22;5.68;;;22.10;30.30;;;;;;6192793;23;20209;-71
2022/03/13 17:47:53;;;;;;;5.63;5.13;;;22.00;30.00;;;;;;6193891;23;20661;-68
2022/03/13 17:50:21;;;;;;;7.05;5.40;;;22.00;30.00;;;;;;6218924;23;20168;-67
2022/03/13 17:52:48;;;;;;;5.93;5.32;;;22.00;30.30;;;;;;6218043;23;20171;-66
2022/03/13 17:55:18;;;;;;;8.27;5.55;;;22.00;30.30;;;;;;6223114;23;20168;-67
2022/03/13 17:57:49;;;;;;;6.47;5.97;;;22.00;30.30;;;;;;6219573;23;20587;-67
2022/03/13 18:00:16;;;;;;;7.07;6.47;;;22.00;30.30;;;;;;6190404;23;20199;-67
2022/03/13 18:02:44;;;;;;;6.82;5.78;;;21.90;30.40;;;;;;6188709;23;20645;-66
2022/03/13 18:05:13;;;;;;;6.47;5.88;;;21.90;30.60;;;;;;6187905;23;20192;-67
2022/03/13 18:07:40;;;;;;;6.55;6.03;;;21.90;30.70;;;;;;6200415;23;20251;-66
2022/03/13 18:10:08;;;;;;;6.60;5.90;;;21.90;30.70;;;;;;6216231;23;20207;-70
2022/03/13 18:17:42;;;;;;;7.30;6.70;;;21.90;30.80;;;;;;6206130;22;20510;-56
2022/03/13 18:20:10;;;;;;;7.00;6.30;;;21.90;30.90;;;;;;6220366;22;20190;-72
2022/03/13 18:22:38;;;;;;;7.40;6.70;;;21.90;31.80;;;;;;6252894;22;20281;-73
2022/03/13 18:25:06;;;;;;;6.50;5.90;;;21.90;31.30;;;;;;6249145;22;20213;-72
2022/03/13 18:38:46;;;;;;;10.75;6.95;;;21.80;43.60;;;;;;6127936;23;20204;-53
2022/03/13 18:41:14;;;;;;;8.93;6.97;;;21.80;40.60;;;;;;6101527;23;20540;-53
2022/03/13 18:43:42;;;;;;;8.45;7.25;;;21.90;48.20;;;;;;6146996;23;20301;-52
2022/03/13 18:46:10;;;;;;;9.55;7.78;;;21.80;50.20;;;;;;6155507;23;20231;-52
2022/03/13 18:48:39;;;;;;;8.75;7.22;;;21.80;52.80;;;;;;6130605;23;20185;-52
2022/03/13 18:51:06;;;;;;;9.77;7.70;;;21.80;53.20;;;;;;6131061;23;20192;-52
2022/03/13 18:53:34;;;;;;;8.82;7.13;;;21.80;50.90;;;;;;6130799;23;20279;-55
2022/03/13 18:56:03;;;;;;;8.38;6.85;;;21.70;49.00;;;;;;6130551;23;20173;-57
2022/03/13 18:58:30;;;;;;;8.35;7.10;;;21.70;48.20;;;;;;6180033;23;20199;-73
2022/03/13 19:00:57;;;;;;;7.75;6.60;;;21.70;47.10;;;;;;6223394;22;20248;-67
2022/03/13 19:03:25;;;;;;;8.48;6.95;;;21.70;44.90;;;;;;6225342;23;20187;-67
2022/03/13 19:05:52;;;;;;;8.02;7.22;;;21.70;43.80;;;;;;6222859;23;20219;-66
2022/03/13 19:08:20;;;;;;;7.38;6.68;;;21.70;42.70;;;;;;6222445;23;20174;-67
2022/03/13 19:10:48;;;;;;;8.65;6.60;;;21.70;42.00;;;;;;6212355;23;20187;-67
2022/03/13 19:13:18;;;;;;;7.10;6.50;;;21.70;41.50;;;;;;6198738;23;20171;-66
2022/03/13 19:15:46;;;;;;;7.30;6.47;;;21.70;40.60;;;;;;6198038;23;20175;-66
2022/03/13 19:18:13;;;;;;;7.22;6.53;;;21.60;40.30;;;;;;6196816;23;20230;-67
2022/03/13 19:23:17;;;;;;;7.57;6.78;;;21.70;39.00;;;;;;6240025;22;20293;-70
2022/03/13 19:29:05;;;;;;;7.45;6.75;;;21.60;38.70;;;;;;6222998;22;20686;-68
2022/03/13 19:31:34;;;;;;;7.35;6.65;;;21.60;38.40;;;;;;6223476;23;20171;-67
2022/03/13 19:34:02;;;;;;;8.02;7.22;;;21.60;37.90;;;;;;6223855;23;20171;-66
2022/03/13 19:36:29;;;;;;;8.20;7.50;;;21.70;37.60;;;;;;6222171;23;20616;-68
2022/03/13 19:38:56;;;;;;;9.82;9.02;;;21.60;36.50;;;;;;6207412;23;20274;-67
2022/03/13 19:41:25;;;;;;;10.20;9.30;;;21.60;36.10;;;;;;6192470;23;20195;-69
2022/03/13 19:43:55;;;;;;;12.00;10.93;;;21.60;36.20;;;;;;6193442;23;20664;-67
2022/03/13 19:46:24;;;;;;;10.85;9.82;;;21.50;37.00;;;;;;6190613;23;20196;-66
2022/03/13 19:48:51;;;;;;;10.77;9.88;;;21.50;37.00;;;;;;6219048;23;20660;-68
2022/03/13 19:51:18;;;;;;;11.40;10.30;;;21.50;35.60;;;;;;6206215;23;20251;-66
2022/03/13 19:53:46;;;;;;;11.48;10.48;;;21.50;36.40;;;;;;6198690;23;20169;-67
2022/03/13 19:56:14;;;;;;;12.30;11.00;;;21.40;35.00;;;;;;6220372;23;20160;-67
2022/03/13 19:58:41;;;;;;;13.80;11.77;;;21.40;36.80;;;;;;6192467;23;20192;-66
2022/03/13 20:01:08;;;;;;;11.77;10.57;;;21.40;37.10;;;;;;6191913;23;20172;-66
2022/03/13 20:03:41;;;;;;;12.05;10.70;;;21.40;36.90;;;;;;6191480;23;20159;-66
2022/03/13 20:06:09;;;;;;;11.57;10.38;;;21.40;36.10;;;;;;6217707;23;20213;-66
2022/03/13 20:08:37;;;;;;;11.25;10.15;;;21.40;36.20;;;;;;6194502;23;20191;-66
2022/03/13 20:11:04;;;;;;;11.00;10.00;;;21.50;36.50;;;;;;6199598;23;20205;-67
2022/03/13 20:13:38;;;;;;;10.48;9.48;;;21.50;36.30;;;;;;6197537;23;20174;-67
2022/03/13 20:16:05;;;;;;;10.60;9.23;;;21.50;36.10;;;;;;6191032;23;20218;-66
2022/03/13 20:18:33;;;;;;;10.75;9.75;;;21.50;35.60;;;;;;6195357;23;20202;-64
2022/03/13 20:21:01;;;;;;;10.15;9.15;;;21.50;35.70;;;;;;6220781;23;20167;-65
2022/03/13 20:23:28;;;;;;;10.25;9.27;;;21.50;35.60;;;;;;6194731;23;20229;-65
2022/03/13 20:25:55;;;;;;;10.45;8.93;;;21.50;35.40;;;;;;6196631;23;20193;-67
2022/03/13 20:28:25;;;;;;;9.50;8.25;;;21.40;35.60;;;;;;6222393;23;20190;-70
2022/03/13 20:30:52;;;;;;;11.30;9.02;;;21.40;35.50;;;;;;6190750;23;20687;-68
2022/03/13 20:33:23;;;;;;;10.02;9.02;;;21.40;36.00;;;;;;6193954;23;20254;-70
2022/03/13 20:35:51;;;;;;;10.10;8.70;;;21.40;36.00;;;;;;6194707;23;20188;-70
2022/03/13 20:38:24;;;;;;;10.35;8.60;;;21.40;35.80;;;;;;6196471;23;20196;-70
2022/03/13 20:41:05;;;;;;;10.15;9.15;;;21.30;35.90;;;;;;6221409;23;20148;-70
2022/03/13 20:43:36;;;;;;;9.98;8.98;;;21.40;35.40;;;;;;6195828;23;20159;-70
2022/03/13 20:46:09;;;;;;;10.05;8.93;;;21.40;35.40;;;;;;6194108;23;20649;-70
2022/03/13 20:48:42;;;;;;;10.25;8.85;;;21.50;35.40;;;;;;6193974;23;20199;-70
2022/03/13 20:51:10;;;;;;;9.40;8.40;;;21.50;35.00;;;;;;6194859;23;20171;-70
2022/03/13 20:53:40;;;;;;;9.18;8.35;;;21.50;35.40;;;;;;6194983;23;20175;-69
2022/03/13 20:56:11;;;;;;;9.40;8.52;;;21.50;35.60;;;;;;6195589;23;20172;-71
2022/03/13 20:58:49;;;;;;;9.52;8.63;;;21.50;34.50;;;;;;6195933;23;20222;-70
2022/03/13 21:01:23;;;;;;;8.93;8.13;;;21.40;33.60;;;;;;6194185;23;20538;-71
2022/03/13 21:03:50;;;;;;;8.48;7.70;;;21.40;32.90;;;;;;6192238;23;20179;-70
2022/03/13 21:06:21;;;;;;;8.73;7.80;;;21.30;33.20;;;;;;6191755;23;20530;-70
2022/03/13 21:08:56;;;;;;;8.68;7.82;;;21.20;33.20;;;;;;6192130;23;20195;-69
2022/03/13 21:11:26;;;;;;;9.23;7.60;;;21.20;33.20;;;;;;6193417;23;20178;-68
2022/03/13 21:13:56;;;;;;;8.20;7.50;;;21.20;33.20;;;;;;6194310;23;20225;-70
2022/03/13 21:16:25;;;;;;;8.68;7.78;;;21.10;33.40;;;;;;6192834;23;20233;-70
2022/03/13 21:18:53;;;;;;;8.52;7.72;;;21.10;33.60;;;;;;6218379;23;20210;-70
2022/03/13 21:21:23;;;;;;;8.32;7.53;;;21.10;33.60;;;;;;6191296;23;20203;-70
2022/03/13 21:23:52;;;;;;;7.65;6.88;;;21.10;33.60;;;;;;6192124;23;20174;-70
2022/03/13 21:26:22;;;;;;;8.38;7.57;;;21.10;33.70;;;;;;6191336;23;20202;-70
2022/03/13 21:28:50;;;;;;;8.07;7.03;;;21.10;33.80;;;;;;6191618;23;20191;-70
2022/03/13 21:31:17;;;;;;;8.25;7.45;;;21.10;33.90;;;;;;6191072;23;20163;-70
2022/03/13 21:33:47;;;;;;;7.43;6.82;;;21.00;34.10;;;;;;6190761;23;20199;-70
2022/03/13 21:36:17;;;;;;;7.82;7.10;;;21.00;33.90;;;;;;6190931;23;20168;-70
2022/03/13 21:38:48;;;;;;;8.38;7.13;;;21.00;33.70;;;;;;6217317;23;20179;-70
2022/03/13 21:41:20;;;;;;;7.72;6.93;;;21.00;34.00;;;;;;6190933;23;20171;-70
2022/03/13 21:43:50;;;;;;;7.63;6.93;;;21.00;34.20;;;;;;6191469;23;20268;-70
2022/03/13 21:46:20;;;;;;;8.63;7.15;;;21.00;33.90;;;;;;6190789;23;20188;-70
2022/03/13 21:48:51;;;;;;;7.63;6.90;;;20.90;34.20;;;;;;6190511;23;20192;-70
2022/03/13 21:51:21;;;;;;;7.32;6.63;;;20.90;33.80;;;;;;6217423;23;20156;-71
2022/03/13 21:53:54;;;;;;;7.25;6.65;;;21.00;34.10;;;;;;6193210;23;20167;-70
2022/03/13 21:56:23;;;;;;;7.75;6.82;;;21.00;34.10;;;;;;6193721;23;20172;-70
2022/03/13 21:58:55;;;;;;;7.53;6.72;;;20.90;34.00;;;;;;6192629;23;20200;-70
2022/03/13 22:01:22;;;;;;;8.48;6.80;;;20.90;33.90;;;;;;6193023;23;20172;-70
2022/03/13 22:03:54;;;;;;;8.18;7.00;;;20.90;34.30;;;;;;6193447;23;20676;-71
2022/03/13 22:06:23;;;;;;;8.55;6.68;;;20.90;34.30;;;;;;6195169;23;20180;-71
2022/03/13 22:08:52;;;;;;;7.90;7.00;;;20.90;34.20;;;;;;6192746;23;20191;-70
2022/03/13 22:11:20;;;;;;;7.32;6.50;;;20.90;34.30;;;;;;6194477;23;20171;-71
2022/03/13 22:13:49;;;;;;;8.68;7.38;;;20.90;34.20;;;;;;6192861;23;20511;-70
2022/03/13 22:16:19;;;;;;;7.32;6.63;;;20.90;34.30;;;;;;6193174;23;20176;-70
2022/03/13 22:18:47;;;;;;;7.32;6.63;;;20.90;34.40;;;;;;6193901;23;20530;-71
2022/03/13 22:21:15;;;;;;;8.20;7.15;;;20.80;34.30;;;;;;6192426;23;20516;-70
2022/03/13 22:23:42;;;;;;;7.68;6.68;;;20.80;34.20;;;;;;6193381;23;20513;-70
2022/03/13 22:26:11;;;;;;;7.72;6.93;;;20.80;34.30;;;;;;6192766;23;20182;-70
2022/03/13 22:28:38;;;;;;;7.60;6.80;;;20.80;34.30;;;;;;6193231;23;20191;-72
2022/03/13 22:31:31;;;;;;;8.20;7.13;;;20.80;34.50;;;;;;6193333;23;20171;-71
2022/03/13 22:40:16;;;;;;;7.30;6.57;;;20.60;34.50;;;;;;6157953;23;20164;-54
2022/03/13 22:42:44;;;;;;;7.28;6.57;;;20.70;34.50;;;;;;6164159;23;20218;-54
2022/03/13 22:45:11;;;;;;;7.45;6.57;;;20.70;34.70;;;;;;6186939;23;20238;-53
2022/03/13 22:47:43;;;;;;;7.30;6.70;;;20.60;34.50;;;;;;6186648;23;20186;-54
2022/03/13 22:50:11;;;;;;;8.02;6.70;;;20.60;34.50;;;;;;6185695;23;20202;-54
2022/03/13 22:52:39;;;;;;;7.75;6.97;;;20.50;34.80;;;;;;6186803;23;20242;-53
2022/03/13 22:55:07;;;;;;;7.18;6.32;;;20.50;34.60;;;;;;6160364;23;20180;-53
2022/03/13 22:57:35;;;;;;;7.85;7.13;;;20.50;34.70;;;;;;6187314;23;20300;-54
2022/03/13 23:00:03;;;;;;;7.20;6.50;;;20.50;34.70;;;;;;6186879;23;20165;-54
2022/03/13 23:02:31;;;;;;;8.50;6.10;;;20.40;34.70;;;;;;6185366;23;20192;-54
2022/03/13 23:04:59;;;;;;;8.70;6.53;;;20.40;34.70;;;;;;6185016;23;20226;-54
2022/03/13 23:07:28;;;;;;;7.22;6.22;;;20.40;34.70;;;;;;6186898;23;20181;-53
2022/03/13 23:09:58;;;;;;;7.25;6.18;;;20.40;34.70;;;;;;6187313;23;20160;-54
2022/03/13 23:12:25;;;;;;;7.60;6.13;;;20.30;34.60;;;;;;6186854;23;20188;-53
2022/03/13 23:14:59;;;;;;;10.95;7.28;;;20.30;35.10;;;;;;6187516;23;20479;-54
2022/03/13 23:17:31;;;;;;;9.70;7.18;;;20.30;35.90;;;;;;6161081;23;20171;-54
2022/03/13 23:20:04;;;;;;;7.65;6.57;;;20.30;35.90;;;;;;6187179;23;20152;-54
2022/03/13 23:22:32;;;;;;;7.35;6.50;;;20.20;35.70;;;;;;6186758;23;20188;-54
2022/03/13 23:25:01;;;;;;;7.43;6.65;;;20.20;36.10;;;;;;6161807;23;20177;-54
2022/03/13 23:27:29;;;;;;;6.72;6.03;;;20.20;35.60;;;;;;6187272;23;20184;-55
2022/03/13 23:30:00;;;;;;;8.27;6.90;;;20.10;35.40;;;;;;6187776;23;20593;-55
2022/03/13 23:32:28;;;;;;;7.30;6.60;;;20.10;38.80;;;;;;6185447;23;20196;-55
2022/03/13 23:34:55;;;;;;;6.93;6.22;;;20.10;38.50;;;;;;6161123;23;20176;-55
2022/03/13 23:37:26;;;;;;;7.57;6.22;;;20.10;38.50;;;;;;6161577;23;20172;-55
2022/03/13 23:39:54;;;;;;;7.20;6.50;;;20.10;38.60;;;;;;6187661;23;20172;-55
2022/03/13 23:42:21;;;;;;;7.07;6.38;;;20.10;38.10;;;;;;6186723;23;20168;-55
2022/03/13 23:44:49;;;;;;;7.10;6.40;;;20.00;37.90;;;;;;6184771;23;20615;-55
2022/03/13 23:47:16;;;;;;;7.38;6.53;;;20.00;37.90;;;;;;6184634;23;20728;-55
2022/03/13 23:49:43;;;;;;;7.28;6.47;;;20.00;37.40;;;;;;6186115;23;20502;-55
2022/03/13 23:52:12;;;;;;;7.05;6.32;;;20.00;37.20;;;;;;6160031;23;20180;-55
2022/03/13 23:54:41;;;;;;;8.20;6.60;;;19.90;37.40;;;;;;6186410;23;20543;-55
2022/03/13 23:57:10;;;;;;;6.95;6.25;;;19.90;37.10;;;;;;6186346;23;20215;-55
2022/03/13 23:59:39;;;;;;;6.97;6.25;;;20.00;36.90;;;;;;6159798;23;20173;-52
